Time;durP1;ratioP1;P1;durP2;ratioP2;P2;SDS_P1;SDS_P2;PMS_P1;PMS_P2;Temp;Humidity;BMP_temperature;BMP_pressure;BME280_temperature;BME280_humidity;BME280_pressure;Samples;Min_cycle;Max_cycle;Signal;HPM_P1;HPM_P2
2023/04/02 00:05:19;;;;;;;5.22;2.70;;;4.20;99.90;;;;;;12489234;28;20319;-36
2023/04/02 00:11:34;;;;;;;6.47;2.78;;;4.10;99.90;;;;;;12505497;28;20075;-36
2023/04/02 00:17:36;;;;;;;9.07;3.10;;;3.90;99.90;;;;;;12508923;28;20587;-36
2023/04/02 00:23:40;;;;;;;9.35;3.38;;;3.70;99.90;;;;;;12503825;28;20466;-36
2023/04/02 00:29:57;;;;;;;8.90;3.63;;;3.70;99.90;;;;;;12529800;28;20458;-36
2023/04/02 00:35:59;;;;;;;6.03;3.67;;;3.60;99.90;;;;;;12516008;28;20046;-35
2023/04/02 00:42:05;;;;;;;8.20;4.28;;;3.50;99.90;;;;;;12503820;28;20050;-36
2023/04/02 00:48:47;;;;;;;7.22;4.15;;;3.60;99.90;;;;;;12512262;28;20084;-36
2023/04/02 00:54:58;;;;;;;8.15;4.13;;;3.60;99.90;;;;;;12504858;28;20493;-36
2023/04/02 01:01:01;;;;;;;8.38;4.18;;;3.50;99.90;;;;;;12525602;28;20044;-36
2023/04/02 01:07:06;;;;;;;9.70;3.80;;;3.40;99.90;;;;;;12506719;28;20567;-36
2023/04/02 01:13:23;;;;;;;8.60;4.38;;;3.30;99.90;;;;;;12503081;28;20064;-36
2023/04/02 01:19:52;;;;;;;12.25;4.22;;;3.30;99.90;;;;;;12520522;28;20053;-36
2023/04/02 01:26:13;;;;;;;8.50;4.03;;;3.20;99.90;;;;;;12511705;28;20042;-36
2023/04/02 01:32:19;;;;;;;11.52;4.68;;;3.10;99.90;;;;;;12504891;28;20053;-36
2023/04/02 01:38:29;;;;;;;7.07;3.60;;;3.10;99.90;;;;;;12504928;28;20099;-37
2023/04/02 01:44:53;;;;;;;9.38;3.50;;;3.00;99.90;;;;;;12483254;28;20102;-36
2023/04/02 01:50:58;;;;;;;8.93;3.58;;;3.10;99.90;;;;;;12509700;28;20045;-36
2023/04/02 01:57:00;;;;;;;8.60;3.63;;;3.10;99.90;;;;;;12505680;28;20144;-35
2023/04/02 02:03:03;;;;;;;8.48;3.08;;;3.00;99.90;;;;;;12520586;28;20067;-35
2023/04/02 02:09:11;;;;;;;5.53;2.80;;;2.90;99.90;;;;;;12503775;28;20072;-36
2023/04/02 02:15:20;;;;;;;7.07;2.78;;;2.90;99.90;;;;;;12518790;28;20099;-36
2023/04/02 02:21:38;;;;;;;5.65;2.67;;;2.90;99.90;;;;;;12501619;28;20057;-36
2023/04/02 02:27:55;;;;;;;6.85;2.33;;;2.90;99.90;;;;;;12506574;28;20477;-36
2023/04/02 02:34:03;;;;;;;7.97;2.22;;;2.80;99.90;;;;;;12507683;28;20195;-36
2023/04/02 02:40:19;;;;;;;4.82;2.13;;;2.80;99.90;;;;;;12525485;28;20052;-36
2023/04/02 02:46:24;;;;;;;6.13;2.03;;;2.70;99.90;;;;;;12492489;28;20094;-36
2023/04/02 02:52:29;;;;;;;6.03;2.47;;;2.70;99.90;;;;;;12525996;28;20190;-35
2023/04/02 02:58:33;;;;;;;7.72;2.70;;;2.70;99.90;;;;;;12520306;28;20497;-36
2023/04/02 03:04:35;;;;;;;9.75;2.58;;;2.70;99.90;;;;;;12522348;28;20053;-36
2023/04/02 03:10:58;;;;;;;6.18;2.30;;;2.70;99.90;;;;;;12504134;28;20041;-35
2023/04/02 03:17:09;;;;;;;4.53;1.98;;;2.70;99.90;;;;;;12504634;28;20499;-36
2023/04/02 03:23:42;;;;;;;8.73;2.08;;;2.60;99.90;;;;;;12517211;28;20500;-35
2023/04/02 03:30:04;;;;;;;6.95;2.00;;;2.60;99.90;;;;;;12511613;28;20045;-35
2023/04/02 03:36:20;;;;;;;8.90;2.53;;;2.40;99.90;;;;;;12522332;28;20124;-36
2023/04/02 03:42:25;;;;;;;14.45;2.72;;;2.40;99.90;;;;;;12512422;28;20507;-36
2023/04/02 03:48:36;;;;;;;5.50;1.80;;;2.40;99.90;;;;;;12511661;28;20486;-35
2023/04/02 03:54:39;;;;;;;4.43;1.95;;;2.30;99.90;;;;;;12505969;28;20089;-36
2023/04/02 04:01:13;;;;;;;8.82;2.20;;;2.40;99.90;;;;;;12520812;28;20043;-36
2023/04/02 04:07:40;;;;;;;4.80;1.70;;;2.40;99.90;;;;;;12499771;28;20569;-36
2023/04/02 04:14:19;;;;;;;7.57;2.00;;;2.30;99.90;;;;;;12497159;28;20178;-36
2023/04/02 04:20:38;;;;;;;6.53;1.40;;;2.30;99.90;;;;;;12484143;28;20053;-36
2023/04/02 04:26:56;;;;;;;4.80;1.70;;;2.30;99.90;;;;;;12510337;28;20045;-36
2023/04/02 04:33:09;;;;;;;7.10;2.03;;;2.30;99.90;;;;;;12511442;28;20114;-35
2023/04/02 04:39:17;;;;;;;9.97;1.70;;;2.30;99.90;;;;;;12494177;28;20041;-36
2023/04/02 04:45:36;;;;;;;7.82;2.03;;;2.30;99.90;;;;;;12502607;28;20280;-36
2023/04/02 04:51:45;;;;;;;10.38;1.50;;;2.30;99.90;;;;;;12511249;28;20061;-36
2023/04/02 04:57:48;;;;;;;6.47;1.38;;;2.30;99.90;;;;;;12516332;28;20496;-36
2023/04/02 05:03:53;;;;;;;5.45;1.73;;;2.30;99.90;;;;;;12519164;28;20041;-36
2023/04/02 05:10:02;;;;;;;;;;;2.30;99.90;;;;;;12504476;28;20187;-36
2023/04/02 05:16:10;;;;;;;2.70;1.20;;;2.30;99.90;;;;;;12502905;28;19977;-35
2023/04/02 05:22:35;;;;;;;7.47;1.48;;;2.30;99.90;;;;;;12513895;28;20387;-35
2023/04/02 05:28:42;;;;;;;6.07;1.33;;;2.30;99.90;;;;;;12505682;28;20068;-36
2023/04/02 05:34:50;;;;;;;5.40;1.33;;;2.30;99.90;;;;;;12499122;28;20057;-36
2023/04/02 05:41:17;;;;;;;5.22;1.55;;;2.30;99.90;;;;;;12496731;28;20106;-35
2023/04/02 05:47:24;;;;;;;5.30;1.40;;;2.30;99.90;;;;;;12500132;28;20056;-36
2023/04/02 05:53:40;;;;;;;3.50;1.23;;;2.30;99.90;;;;;;12507150;28;20057;-36
2023/04/02 06:00:05;;;;;;;5.60;1.20;;;2.30;99.90;;;;;;12517762;28;20045;-35
2023/04/02 06:06:34;;;;;;;3.97;1.20;;;2.30;99.90;;;;;;12508773;28;20054;-36
2023/04/02 06:12:50;;;;;;;5.45;1.30;;;2.30;99.90;;;;;;12503630;28;20094;-36
2023/04/02 06:18:52;;;;;;;7.03;1.52;;;2.30;99.90;;;;;;12506551;28;20058;-36
2023/04/02 06:25:09;;;;;;;4.38;1.17;;;2.40;99.90;;;;;;12506996;28;20055;-35
2023/04/02 06:31:20;;;;;;;3.97;1.25;;;2.40;99.90;;;;;;12507455;28;20045;-36
2023/04/02 06:37:36;;;;;;;4.55;1.00;;;2.50;99.90;;;;;;12506759;28;20038;-35
2023/04/02 06:43:50;;;;;;;3.97;1.02;;;2.50;99.90;;;;;;12497409;28;20041;-36
2023/04/02 06:50:13;;;;;;;2.30;0.93;;;2.60;99.90;;;;;;12496796;28;20045;-35
2023/04/02 06:56:27;;;;;;;4.97;1.30;;;2.60;99.90;;;;;;12495702;28;20183;-35
2023/04/02 07:02:34;;;;;;;3.33;0.93;;;2.60;99.90;;;;;;12513611;28;20042;-35
2023/04/02 07:08:36;;;;;;;6.78;0.90;;;2.60;99.90;;;;;;12515021;28;20068;-36
2023/04/02 07:14:38;;;;;;;3.28;1.15;;;2.60;99.90;;;;;;12492047;28;20486;-35
2023/04/02 07:20:40;;;;;;;4.13;1.00;;;2.60;99.90;;;;;;12498011;28;20050;-36
2023/04/02 07:26:42;;;;;;;6.20;1.08;;;2.60;99.90;;;;;;12511693;28;20045;-35
2023/04/02 07:32:44;;;;;;;2.90;1.08;;;2.70;99.90;;;;;;12514318;28;20070;-36
2023/04/02 07:38:47;;;;;;;4.28;0.90;;;2.60;99.90;;;;;;12512149;28;20037;-36
2023/04/02 07:44:50;;;;;;;2.35;0.90;;;2.60;99.90;;;;;;12507848;28;20076;-36
2023/04/02 07:50:51;;;;;;;3.25;0.90;;;2.70;99.90;;;;;;12521318;28;20478;-36
2023/04/02 07:56:53;;;;;;;5.75;1.08;;;2.70;99.90;;;;;;12517702;28;20057;-36
2023/04/02 08:02:55;;;;;;;5.03;1.00;;;2.80;99.90;;;;;;12526845;28;20409;-36
2023/04/02 08:08:57;;;;;;;2.95;0.77;;;2.70;99.90;;;;;;12536714;28;20393;-36
2023/04/02 08:14:59;;;;;;;3.42;1.30;;;2.80;99.90;;;;;;12506050;28;20033;-36
2023/04/02 08:21:01;;;;;;;3.83;1.17;;;3.00;99.90;;;;;;12494254;28;20045;-36
2023/04/02 08:27:03;;;;;;;4.03;1.10;;;3.00;99.90;;;;;;12516506;28;20456;-36
2023/04/02 08:33:05;;;;;;;5.30;1.08;;;3.00;99.90;;;;;;12507614;28;20049;-36
2023/04/02 08:39:11;;;;;;;2.10;0.80;;;3.20;99.90;;;;;;12511091;28;20045;-36
2023/04/02 08:45:22;;;;;;;2.50;1.10;;;3.30;99.90;;;;;;12510883;28;20045;-36
2023/04/02 08:51:39;;;;;;;2.75;1.02;;;3.40;99.90;;;;;;12519821;28;20050;-36
2023/04/02 08:57:47;;;;;;;4.10;1.10;;;3.50;99.90;;;;;;12515470;28;20060;-35
2023/04/02 09:03:51;;;;;;;3.83;1.00;;;3.50;99.90;;;;;;12511751;28;20052;-35
2023/04/02 09:09:53;;;;;;;1.63;0.83;;;3.60;99.90;;;;;;12518855;28;20458;-36
2023/04/02 09:16:10;;;;;;;7.18;1.30;;;3.80;99.90;;;;;;12512987;28;20284;-36
2023/04/02 09:22:27;;;;;;;3.85;1.20;;;3.80;99.90;;;;;;12517670;28;20044;-37
2023/04/02 09:28:29;;;;;;;6.47;1.33;;;4.00;99.90;;;;;;12512163;28;20045;-36
2023/04/02 09:34:33;;;;;;;3.53;1.25;;;4.00;99.90;;;;;;12525644;28;20049;-36
2023/04/02 09:40:57;;;;;;;3.30;1.23;;;4.20;99.90;;;;;;12496217;28;20045;-36
2023/04/02 09:47:02;;;;;;;2.33;1.00;;;4.20;99.90;;;;;;12501208;28;20495;-36
2023/04/02 09:53:32;;;;;;;6.15;1.13;;;4.30;99.90;;;;;;12511046;28;20057;-36
2023/04/02 09:59:34;;;;;;;3.78;1.25;;;4.60;99.90;;;;;;12516485;28;20552;-36
2023/04/02 10:05:37;;;;;;;5.10;1.48;;;4.50;99.90;;;;;;12523574;28;20404;-36
2023/04/02 10:11:42;;;;;;;3.78;1.00;;;4.40;99.90;;;;;;12506157;28;20068;-36
2023/04/02 10:17:52;;;;;;;3.08;0.88;;;4.60;99.90;;;;;;12520376;28;20052;-37
2023/04/02 10:23:57;;;;;;;3.03;1.05;;;4.60;99.90;;;;;;12502398;28;20063;-36
2023/04/02 10:30:19;;;;;;;2.78;0.80;;;5.00;99.90;;;;;;12524077;28;20057;-36
2023/04/02 10:36:34;;;;;;;2.80;1.10;;;5.00;99.90;;;;;;12501286;28;20057;-36
2023/04/02 10:42:43;;;;;;;3.10;0.85;;;5.10;99.90;;;;;;12525997;28;20041;-36
2023/04/02 10:49:23;;;;;;;3.15;0.75;;;4.90;99.90;;;;;;12497968;28;20394;-36
2023/04/02 10:55:30;;;;;;;3.72;0.98;;;5.10;99.90;;;;;;12512756;28;21165;-37
2023/04/02 11:01:34;;;;;;;2.45;1.00;;;5.30;99.90;;;;;;12513455;28;20119;-36
2023/04/02 11:07:51;;;;;;;3.53;1.02;;;5.10;99.90;;;;;;12524287;28;20132;-37
2023/04/02 11:14:20;;;;;;;5.85;0.90;;;5.50;99.90;;;;;;12511940;28;20128;-36
2023/04/02 11:20:42;;;;;;;3.15;0.90;;;5.60;99.90;;;;;;12517392;28;20455;-36
2023/04/02 11:26:46;;;;;;;2.78;0.90;;;5.50;99.90;;;;;;12523108;28;20434;-37
2023/04/02 11:32:48;;;;;;;3.87;1.27;;;6.00;99.90;;;;;;12504839;28;20570;-36
2023/04/02 11:38:51;;;;;;;3.50;0.95;;;5.60;99.90;;;;;;12513736;28;20068;-36
2023/04/02 11:44:55;;;;;;;6.13;1.27;;;5.60;99.90;;;;;;12496723;28;20377;-36
2023/04/02 11:50:57;;;;;;;5.22;1.20;;;5.50;99.90;;;;;;12524936;28;20048;-37
2023/04/02 11:57:23;;;;;;;2.95;0.93;;;5.80;99.90;;;;;;12504570;28;20072;-36
2023/04/02 12:03:46;;;;;;;4.22;1.15;;;6.50;99.90;;;;;;12524158;28;20143;-36
2023/04/02 12:09:49;;;;;;;3.42;1.00;;;6.00;99.90;;;;;;12506794;28;20042;-36
2023/04/02 12:15:51;;;;;;;2.28;0.90;;;6.00;99.90;;;;;;12497723;28;20140;-36
2023/04/02 12:21:53;;;;;;;2.00;0.80;;;6.20;99.90;;;;;;12521030;28;20060;-36
2023/04/02 12:28:10;;;;;;;2.00;1.10;;;6.60;99.90;;;;;;12516861;28;20111;-36
2023/04/02 12:34:18;;;;;;;3.30;1.00;;;7.60;99.90;;;;;;12537006;28;20105;-37
2023/04/02 12:40:20;;;;;;;3.63;1.05;;;7.50;99.90;;;;;;12500251;28;20045;-36
2023/04/02 12:46:24;;;;;;;2.20;0.60;;;6.50;99.90;;;;;;12488098;28;20051;-36
2023/04/02 12:52:28;;;;;;;2.47;0.80;;;6.40;99.90;;;;;;12510256;28;20049;-36
2023/04/02 12:58:39;;;;;;;3.13;1.13;;;7.20;99.90;;;;;;12516170;28;20044;-36
2023/04/02 13:04:49;;;;;;;5.15;1.20;;;7.20;99.90;;;;;;12526295;28;20115;-36
2023/04/02 13:10:57;;;;;;;2.60;0.90;;;7.80;99.90;;;;;;12517257;28;20048;-37
2023/04/02 13:16:59;;;;;;;5.47;1.00;;;8.00;99.90;;;;;;12493409;28;20083;-36
2023/04/02 13:23:30;;;;;;;2.60;1.00;;;7.10;99.90;;;;;;12509955;28;20041;-37
2023/04/02 13:29:34;;;;;;;1.98;0.88;;;7.80;99.90;;;;;;12503882;28;20041;-37
2023/04/02 13:35:36;;;;;;;3.97;0.90;;;8.10;99.90;;;;;;12512135;28;20042;-36
2023/04/02 13:41:57;;;;;;;4.35;1.00;;;7.60;99.90;;;;;;12518796;28;20052;-36
2023/04/02 13:48:02;;;;;;;2.30;1.02;;;7.40;99.90;;;;;;12501260;28;20465;-37
2023/04/02 13:54:10;;;;;;;2.33;0.70;;;7.80;99.90;;;;;;12499554;28;20053;-36
2023/04/02 14:00:12;;;;;;;3.22;0.88;;;7.70;99.90;;;;;;12508369;28;20451;-36
2023/04/02 14:06:38;;;;;;;3.78;0.95;;;7.60;99.90;;;;;;12521060;28;20146;-37
2023/04/02 14:13:07;;;;;;;3.03;0.95;;;7.70;99.90;;;;;;12513815;28;20045;-37
2023/04/02 14:19:26;;;;;;;3.13;0.82;;;7.60;99.90;;;;;;12490938;28;20470;-37
2023/04/02 14:25:43;;;;;;;3.63;0.88;;;7.70;99.90;;;;;;12512369;28;20037;-37
2023/04/02 14:32:05;;;;;;;4.40;1.00;;;8.10;99.90;;;;;;12510544;28;20061;-37
2023/04/02 14:38:18;;;;;;;1.90;0.70;;;8.20;99.90;;;;;;12536534;28;20053;-36
2023/04/02 14:44:23;;;;;;;3.90;0.90;;;8.50;99.90;;;;;;12506758;28;20046;-35
2023/04/02 14:50:39;;;;;;;1.90;0.63;;;8.30;99.90;;;;;;12505281;28;20044;-37
2023/04/02 14:56:55;;;;;;;3.67;0.70;;;8.40;99.90;;;;;;12511497;28;20131;-36
2023/04/02 15:03:24;;;;;;;3.00;0.90;;;8.40;99.90;;;;;;12530054;28;20086;-37
2023/04/02 15:09:39;;;;;;;3.08;0.90;;;8.30;99.90;;;;;;12513236;28;20052;-36
2023/04/02 15:15:48;;;;;;;1.75;0.57;;;8.30;99.90;;;;;;12500735;28;20042;-37
2023/04/02 15:21:58;;;;;;;2.25;0.82;;;8.30;99.90;;;;;;12529528;28;20044;-36
2023/04/02 15:28:24;;;;;;;3.10;0.77;;;8.20;99.90;;;;;;12529895;28;20045;-37
2023/04/02 15:34:31;;;;;;;4.40;0.73;;;7.90;99.90;;;;;;12500340;28;20527;-36
2023/04/02 15:40:51;;;;;;;2.85;0.70;;;8.00;99.90;;;;;;12521731;28;20393;-36
2023/04/02 15:47:26;;;;;;;2.58;0.68;;;7.70;99.90;;;;;;12500689;28;20051;-36
2023/04/02 15:53:54;;;;;;;3.38;0.55;;;7.80;99.90;;;;;;12491884;28;20413;-37
2023/04/02 16:00:21;;;;;;;3.33;0.60;;;8.50;99.90;;;;;;12522459;28;20049;-36
2023/04/02 16:06:37;;;;;;;3.90;0.70;;;8.20;99.90;;;;;;12525268;28;20068;-37
2023/04/02 16:12:40;;;;;;;2.17;0.70;;;7.80;99.90;;;;;;12513481;28;20045;-36
2023/04/02 16:19:00;;;;;;;2.97;0.77;;;8.30;99.90;;;;;;12497418;28;20390;-36
2023/04/02 16:25:15;;;;;;;3.50;0.60;;;8.50;99.90;;;;;;12526501;28;20040;-36
2023/04/02 16:31:31;;;;;;;2.33;0.60;;;8.40;99.90;;;;;;12498592;28;20045;-36
2023/04/02 16:37:47;;;;;;;3.90;0.80;;;7.90;99.90;;;;;;12521021;28;20049;-36
2023/04/02 16:43:59;;;;;;;2.13;0.55;;;7.60;99.90;;;;;;12497804;28;20513;-37
2023/04/02 16:50:14;;;;;;;1.83;0.60;;;7.50;99.90;;;;;;12519105;28;20044;-37
2023/04/02 16:56:31;;;;;;;1.40;0.55;;;7.70;99.90;;;;;;12497857;28;20061;-35
2023/04/02 17:02:51;;;;;;;2.75;1.00;;;7.80;99.90;;;;;;12535032;28;20053;-36
2023/04/02 17:09:02;;;;;;;3.53;0.60;;;7.80;99.90;;;;;;12502321;28;20053;-36
2023/04/02 17:15:15;;;;;;;1.63;0.63;;;7.60;99.90;;;;;;12501307;28;20102;-36
2023/04/02 17:21:29;;;;;;;;;;;7.30;99.90;;;;;;12491147;28;20049;-36
2023/04/02 17:27:41;;;;;;;2.70;0.90;;;7.20;99.90;;;;;;12510154;28;19920;-35
2023/04/02 17:33:43;;;;;;;2.05;0.60;;;7.30;99.90;;;;;;12505109;28;20048;-36
2023/04/02 17:39:54;;;;;;;2.20;0.50;;;7.30;99.90;;;;;;12515399;28;20068;-36
2023/04/02 17:46:03;;;;;;;2.22;0.73;;;7.40;99.90;;;;;;12503910;28;20049;-35
2023/04/02 17:52:20;;;;;;;1.90;0.60;;;7.30;99.90;;;;;;12511867;28;20048;-36
2023/04/02 17:58:59;;;;;;;3.00;0.80;;;7.10;99.90;;;;;;12512970;28;20082;-36
2023/04/02 18:05:23;;;;;;;3.75;1.13;;;7.00;99.90;;;;;;12504490;28;20048;-36
2023/04/02 18:11:51;;;;;;;1.63;0.73;;;6.90;99.90;;;;;;12507209;28;20132;-37
2023/04/02 18:18:20;;;;;;;2.83;0.80;;;6.70;99.90;;;;;;12497428;28;20053;-36
2023/04/02 18:25:05;;;;;;;2.78;0.60;;;6.80;99.90;;;;;;12507065;28;20045;-36
2023/04/02 18:31:28;;;;;;;;;;;6.70;99.90;;;;;;12519188;28;20049;-36
2023/04/02 18:37:59;;;;;;;3.38;1.10;;;6.60;99.90;;;;;;12503106;28;19921;-37
2023/04/02 18:44:26;;;;;;;3.08;1.17;;;6.60;99.90;;;;;;12494688;28;20045;-37
2023/04/02 18:50:36;;;;;;;2.80;0.85;;;6.60;99.90;;;;;;12499589;28;20057;-37
2023/04/02 18:56:40;;;;;;;4.57;1.13;;;6.60;99.90;;;;;;12512817;28;20052;-36
2023/04/02 19:02:47;;;;;;;3.87;1.10;;;6.60;99.90;;;;;;12529848;28;20134;-36
2023/04/02 19:08:49;;;;;;;4.25;1.10;;;6.60;99.90;;;;;;12507064;28;20516;-37
2023/04/02 19:14:52;;;;;;;3.65;1.20;;;6.60;99.90;;;;;;12516904;28;20534;-37
2023/04/02 19:21:20;;;;;;;5.38;1.20;;;6.60;99.90;;;;;;12509098;28;20132;-37
2023/04/02 19:27:38;;;;;;;3.70;0.80;;;6.60;99.90;;;;;;12514154;28;20184;-37
2023/04/02 19:34:01;;;;;;;4.93;1.02;;;6.60;99.90;;;;;;12529674;28;20155;-36
2023/04/02 19:40:44;;;;;;;2.85;0.88;;;6.50;99.90;;;;;;12523031;28;20666;-36
2023/04/02 19:46:46;;;;;;;2.38;0.60;;;6.30;99.90;;;;;;12478732;28;20056;-35
2023/04/02 19:52:48;;;;;;;4.43;0.75;;;6.20;99.90;;;;;;12508961;28;20064;-36
2023/04/02 19:58:50;;;;;;;2.60;0.85;;;6.10;99.90;;;;;;12508499;28;20049;-37
2023/04/02 20:04:51;;;;;;;4.22;0.95;;;6.00;99.90;;;;;;12508127;28;20111;-36
2023/04/02 20:10:57;;;;;;;3.08;1.30;;;5.90;99.90;;;;;;12510526;28;20492;-36
2023/04/02 20:16:59;;;;;;;4.10;0.98;;;5.80;99.90;;;;;;12510201;28;20041;-36
2023/04/02 20:23:01;;;;;;;3.78;0.70;;;5.70;99.90;;;;;;12508569;28;20549;-36
2023/04/02 20:29:03;;;;;;;3.50;0.85;;;5.50;99.90;;;;;;12505587;28;20180;-36
2023/04/02 20:35:05;;;;;;;3.75;0.90;;;5.40;99.90;;;;;;12493520;28;20063;-37
2023/04/02 20:41:08;;;;;;;4.80;0.82;;;5.30;99.90;;;;;;12497530;28;20041;-36
2023/04/02 20:47:09;;;;;;;3.90;1.15;;;5.20;99.90;;;;;;12505456;28;20045;-36
2023/04/02 20:53:11;;;;;;;5.47;1.20;;;5.10;99.90;;;;;;12515222;28;20132;-36
2023/04/02 20:59:13;;;;;;;3.10;0.80;;;5.00;99.90;;;;;;12516495;28;20044;-36
2023/04/02 21:05:15;;;;;;;4.45;0.90;;;4.90;99.90;;;;;;12525165;28;20063;-36
2023/04/02 21:11:18;;;;;;;3.05;0.80;;;4.70;99.90;;;;;;12502244;28;20484;-36
2023/04/02 21:17:20;;;;;;;4.00;0.88;;;4.70;99.90;;;;;;12518200;28;20478;-36
2023/04/02 21:23:22;;;;;;;2.53;1.00;;;4.60;99.90;;;;;;12493950;28;20191;-37
2023/04/02 21:29:23;;;;;;;4.95;0.90;;;4.30;99.90;;;;;;12494213;28;20429;-36
2023/04/02 21:35:25;;;;;;;4.65;1.10;;;4.10;99.90;;;;;;12513425;28;20513;-36
2023/04/02 21:41:32;;;;;;;5.57;1.05;;;4.10;99.90;;;;;;12518210;28;20600;-36
2023/04/02 21:47:34;;;;;;;4.40;0.93;;;4.00;99.90;;;;;;12493777;28;20052;-36
2023/04/02 21:53:37;;;;;;;4.05;1.08;;;3.90;99.90;;;;;;12497976;28;20508;-36
2023/04/02 21:59:39;;;;;;;4.88;1.08;;;3.70;99.90;;;;;;12517978;28;20049;-36
2023/04/02 22:05:41;;;;;;;4.82;1.00;;;3.60;99.90;;;;;;12503355;28;20098;-36
2023/04/02 22:11:46;;;;;;;4.75;1.08;;;3.50;99.90;;;;;;12514780;28;20068;-36
2023/04/02 22:17:47;;;;;;;3.75;1.23;;;3.50;99.90;;;;;;12489820;28;20191;-37
2023/04/02 22:23:50;;;;;;;3.08;0.98;;;3.40;99.90;;;;;;12497204;28;20144;-35
2023/04/02 22:29:52;;;;;;;2.35;1.08;;;3.30;99.90;;;;;;12496906;28;20045;-36
2023/04/02 22:35:53;;;;;;;2.78;1.00;;;3.10;99.90;;;;;;12503080;28;20053;-36
2023/04/02 22:41:55;;;;;;;3.88;1.33;;;3.10;99.90;;;;;;12501490;28;20053;-35
2023/04/02 22:47:57;;;;;;;4.57;1.55;;;3.00;99.90;;;;;;12508338;28;20064;-36
2023/04/02 22:53:59;;;;;;;4.50;1.33;;;2.90;99.90;;;;;;12512562;28;20080;-36
2023/04/02 23:00:01;;;;;;;3.20;1.10;;;2.80;99.90;;;;;;12504452;28;20045;-36
2023/04/02 23:06:06;;;;;;;4.72;1.30;;;2.60;99.90;;;;;;12511623;28;20720;-36
2023/04/02 23:12:08;;;;;;;4.05;1.50;;;2.50;99.90;;;;;;12510400;28;20045;-36
2023/04/02 23:18:09;;;;;;;5.55;1.15;;;2.40;99.90;;;;;;12502449;28;20045;-36
2023/04/02 23:24:12;;;;;;;5.50;1.23;;;2.30;99.90;;;;;;12512932;28;20402;-36
2023/04/02 23:30:13;;;;;;;4.60;1.50;;;2.20;99.90;;;;;;12515573;28;20477;-36
2023/04/02 23:36:18;;;;;;;3.70;1.23;;;2.20;99.90;;;;;;12510798;28;20505;-38
2023/04/02 23:42:20;;;;;;;2.35;1.10;;;2.20;99.90;;;;;;12507776;28;20056;-38
2023/04/02 23:48:21;;;;;;;6.90;1.60;;;2.10;99.90;;;;;;12510947;28;20083;-38
2023/04/02 23:54:23;;;;;;;4.18;1.35;;;2.10;99.90;;;;;;12503640;28;20113;-39
